Flight Track Log - Related Links

Times and Time Zones

All times are in EDT time to prevent confusion due to time zone crossing. See the TAM3386 flight status page for this flight to view local times or setup timezone preferences in your user account.

Time Position Orientation Groundspeed Altitude Reporting Facility
EDT Latitude Longitude Course Direction KTS MPH feet Rate Location/Type
Sun 06:25:58 PM -23.4310 -46.4790 75° East 12 14  Level FlightAware ADS-B
Sun 06:27:22 PM -23.4300 -46.4740 78° East 16 18 131 Level FlightAware ADS-B
Sun 06:27:57 PM -23.4290 -46.4710 70° East 11 13 142 Level FlightAware ADS-B
Sun 06:28:37 PM -23.4290 -46.4690 90° East 11 13 146 Level FlightAware ADS-B
Sun 06:28:57 PM -23.4280 -46.4680 43° Northeast 10 12 152 Level FlightAware ADS-B
Sun 06:29:22 PM -23.4280 -46.4660 90° East 13 15 155 Level FlightAware ADS-B
Sun 06:30:02 PM -23.4270 -46.4640 61° Northeast 15 17 160 Level FlightAware ADS-B
Sun 06:30:48 PM -23.4260 -46.4600 75° East 15 17 167 Level FlightAware ADS-B
Sun 06:33:00 PM -23.1708 -46.4860 355° North  Level Estimated
Sun 06:34:00 PM -23.0548 -46.4978 355° North  Level Estimated
Sun 06:35:00 PM -22.9388 -46.5096 355° North  Level Estimated
Sun 06:36:00 PM -22.8228 -46.5214 355° North  Level Estimated
Sun 06:37:00 PM -22.7069 -46.5331 355° North  Level Estimated
Sun 06:38:00 PM -22.5909 -46.5448 355° North  Level Estimated
Sun 06:39:00 PM -22.4749 -46.5565 355° North  Level Estimated
Sun 06:40:00 PM -22.3589 -46.5682 355° North  Level Estimated
Sun 06:41:00 PM -22.2429 -46.5799 355° North  Level Estimated
Sun 06:44:00 PM -23.1389 -46.4783 355° North  Level Estimated
Sun 06:44:27 PM -23.4260 -46.4520 355° North 70 81  Level FlightAware ADS-B
Sun 06:44:47 PM -23.4290 -46.4640 255° West 155 178 4,286 Level FlightAware ADS-B
Sun 06:45:02 PM -23.4330 -46.4780 253° West 177 204 2,500 4,950 Climbing FlightAware ADS-B
Sun 06:45:27 PM -23.4380 -46.4990 255° West 180 207 3,300 1,745 Climbing FlightAware ADS-B
Sun 06:45:57 PM -23.4450 -46.5280 255° West 198 228 4,100 1,680 Climbing FlightAware ADS-B
Sun 06:46:17 PM -23.4500 -46.5470 254° West 201 231 4,700 1,714 Climbing FlightAware ADS-B
Sun 06:46:32 PM -23.4590 -46.5580 228° Southwest 194 223 5,100 1,920 Climbing FlightAware ADS-B
Sun 06:46:42 PM -23.4670 -46.5610 199° South 197 227 5,500 1,800 Climbing FlightAware ADS-B
Sun 06:47:12 PM -23.4900 -46.5460 149° Southeast 199 229 6,300 1,100 Climbing FlightAware ADS-B
Sun 06:47:42 PM -23.5060 -46.5160 120° Southeast 245 282 6,600 828 Climbing FlightAware ADS-B
Sun 06:48:10 PM -23.5120 -46.4770 100° East 283 326 7,100 1,472 Climbing FlightAware ADS-B
Sun 06:48:35 PM -23.5060 -46.4420 79° East 296 341 7,900 1,946 Climbing FlightAware ADS-B
Sun 06:48:47 PM -23.4980 -46.4260 61° Northeast 301 346 8,300 2,571 Climbing FlightAware ADS-B
Sun 06:49:10 PM -23.4800 -46.3970 56° Northeast 297 342 9,400 1,855 Climbing FlightAware ADS-B
Sun 06:49:42 PM -23.4560 -46.3550 58° Northeast 308 354 10,000 667 Climbing FlightAware ADS-B
Sun 06:50:22 PM -23.4230 -46.3070 53° Northeast 322 371 10,200 462 Climbing FlightAware ADS-B
Sun 06:50:34 PM -23.4040 -46.2980 23° Northeast 335 386 10,400 1,108 Climbing FlightAware ADS-B
Sun 06:51:27 PM -23.3260 -46.2660 21° North 370 426 11,400 1,011 Climbing FlightAware ADS-B
Sun 06:52:09 PM -23.2570 -46.2390 20° North 398 458 12,000 1,467 Climbing FlightAware ADS-B
Sun 06:52:57 PM -23.1740 -46.2050 21° North 403 464 13,600 1,553 Climbing FlightAware ADS-B
Sun 06:53:34 PM -23.1070 -46.1790 20° North 420 483 14,200 1,200 Climbing FlightAware ADS-B
Sun 06:53:47 PM -23.0800 -46.1750 North 419 482 14,600 2,341 Climbing FlightAware ADS-B
Sun 06:54:15 PM -23.0400 -46.1810 352° North 407 468 15,800 2,531 Climbing FlightAware ADS-B
Sun 06:54:51 PM -22.9730 -46.1930 351° North 388 447 17,300 1,692 Climbing FlightAware ADS-B
Sun 06:55:33 PM -22.8970 -46.2060 351° North 403 464 18,000 1,034 Climbing FlightAware ADS-B
Sun 06:56:18 PM -22.8100 -46.2210 351° North 420 483 18,800 1,079 Climbing FlightAware ADS-B
Sun 06:57:02 PM -22.7210 -46.2360 351° North 432 497 19,600 1,379 Climbing FlightAware ADS-B
Sun 06:57:45 PM -22.6400 -46.2500 351° North 430 495 20,800 1,747 Climbing FlightAware ADS-B
Sun 06:58:21 PM -22.5670 -46.2630 351° North 424 488 21,900 1,543 Climbing FlightAware ADS-B
Sun 06:58:55 PM -22.5050 -46.2730 352° North 427 491 22,600 1,703 Climbing FlightAware ADS-B
Sun 06:59:35 PM -22.4230 -46.2870 351° North 419 482 24,000 1,610 Climbing FlightAware ADS-B
Sun 07:00:17 PM -22.3440 -46.3010 351° North 423 487 24,800 805 Climbing FlightAware ADS-B
Sun 07:00:57 PM -22.2630 -46.3150 351° North 442 509 25,100 698 Climbing FlightAware ADS-B
Sun 07:01:43 PM -22.1620 -46.3320 351° North 452 520 25,800 977 Climbing FlightAware ADS-B
Sun 07:02:23 PM -22.0850 -46.3450 351° North 453 521 26,500 986 Climbing FlightAware ADS-B
Sun 07:02:56 PM -22.0160 -46.3580 350° North 457 526 27,000 837 Climbing FlightAware ADS-B
Sun 07:03:49 PM -21.9030 -46.3800 350° North 465 535 27,700 750 Climbing FlightAware ADS-B
Sun 07:04:48 PM -21.7640 -46.4020 352° North 477 549 28,400 765 Climbing FlightAware ADS-B
Sun 07:05:31 PM -21.6660 -46.4180 351° North 481 554 29,000 809 Climbing FlightAware ADS-B
Sun 07:06:17 PM -21.5660 -46.4340 352° North 474 545 29,600 1,047 Climbing FlightAware ADS-B
Sun 07:06:57 PM -21.4770 -46.4490 351° North 468 539 30,500 1,120 Climbing FlightAware ADS-B
Sun 07:07:32 PM -21.4010 -46.4610 352° North 474 545 31,000 759 Climbing FlightAware ADS-B
Sun 07:08:16 PM -21.3040 -46.4770 351° North 471 542 31,500 675 Climbing FlightAware ADS-B
Sun 07:08:52 PM -21.2270 -46.4900 351° North 471 542 31,900 900 Climbing FlightAware ADS-B
Sun 07:09:36 PM -21.1290 -46.5060 351° North 473 544 32,700 1,120 Climbing FlightAware ADS-B
Sun 07:10:07 PM -21.0610 -46.5170 351° North 468 539 33,300 857 Climbing FlightAware ADS-B
Sun 07:10:53 PM -20.9640 -46.5330 351° North 467 537 33,800 690 Climbing FlightAware ADS-B
Sun 07:11:34 PM -20.8750 -46.5470 352° North 466 536 34,300 714 Climbing FlightAware ADS-B
Sun 07:12:17 PM -20.7820 -46.5620 351° North 465 535 34,800 472 Climbing FlightAware ADS-B
Sun 07:13:03 PM -20.6840 -46.5780 351° North 467 537 35,000 146 Climbing FlightAware ADS-B
Sun 07:13:39 PM -20.6060 -46.5910 351° North 466 536 35,000  Level FlightAware ADS-B
Sun 07:14:26 PM -20.5070 -46.6070 351° North 465 535 35,000  Level FlightAware ADS-B
Sun 07:14:59 PM -20.4360 -46.6190 351° North 464 534 35,000  Level FlightAware ADS-B
Sun 07:15:39 PM -20.3520 -46.6350 350° North 463 533 35,000  Level FlightAware ADS-B
Sun 07:16:23 PM -20.2580 -46.6520 350° North 464 534 35,000  Level FlightAware ADS-B
Sun 07:16:54 PM -20.1940 -46.6640 350° North 463 533 35,000  Level FlightAware ADS-B
Sun 07:17:40 PM -20.0940 -46.6820 350° North 463 533 35,000  Level FlightAware ADS-B
Sun 07:18:23 PM -20.0040 -46.6980 351° North 464 534 35,000  Level FlightAware ADS-B
Sun 07:19:04 PM -19.9150 -46.7150 350° North 464 534 35,000  Level FlightAware ADS-B
Sun 07:19:42 PM -19.8360 -46.7290 351° North 465 535 35,000  Level FlightAware ADS-B
Sun 07:20:28 PM -19.7390 -46.7460 351° North 465 535 35,000  Level FlightAware ADS-B
Sun 07:21:12 PM -19.6430 -46.7640 350° North 466 536 35,000  Level FlightAware ADS-B
Sun 07:21:44 PM -19.5760 -46.7760 350° North 467 537 35,000  Level FlightAware ADS-B
Sun 07:22:28 PM -19.4810 -46.7930 350° North 468 539 35,000  Level FlightAware ADS-B
Sun 07:23:09 PM -19.3930 -46.8090 350° North 468 539 35,000  Level FlightAware ADS-B
Sun 07:23:45 PM -19.3160 -46.8230 350° North 469 540 35,000  Level FlightAware ADS-B
Sun 07:24:25 PM -19.2290 -46.8380 351° North 469 540 35,000  Level FlightAware ADS-B
Sun 07:25:09 PM -19.1350 -46.8530 351° North 469 540 35,000  Level FlightAware ADS-B
Sun 07:25:49 PM -19.0510 -46.8660 352° North 468 539 35,000  Level FlightAware ADS-B
Sun 07:26:33 PM -18.9570 -46.8810 351° North 467 537 35,000  Level FlightAware ADS-B
Sun 07:27:14 PM -18.8690 -46.8950 351° North 467 537 35,000  Level FlightAware ADS-B
Sun 07:27:57 PM -18.7770 -46.9090 352° North 467 537 35,000  Level FlightAware ADS-B
Sun 07:28:37 PM -18.6920 -46.9210 352° North 469 540 35,000  Level FlightAware ADS-B
Sun 07:29:15 PM -18.6240 -46.9300 353° North 469 540 35,000  Level FlightAware ADS-B
Sun 07:29:51 PM -18.5380 -46.9420 352° North 470 541 35,000  Level FlightAware ADS-B
Sun 07:30:39 PM -18.4500 -46.9550 352° North 470 541 35,000  Level FlightAware ADS-B
Sun 07:31:15 PM -18.3840 -46.9650 352° North 470 541 35,000  Level FlightAware ADS-B
Sun 07:32:15 PM -18.2260 -46.9840 353° North 478 550 35,000  Level FlightAware ADS-B
Sun 07:32:57 PM -18.1210 -46.9970 353° North 477 549 35,000  Level FlightAware ADS-B
Sun 07:33:41 PM -18.0240 -47.0100 353° North 474 545 35,000  Level FlightAware ADS-B
Sun 07:34:21 PM -17.9380 -47.0210 353° North 471 542 35,000  Level FlightAware ADS-B
Sun 07:35:05 PM -17.8430 -47.0340 353° North 468 539 35,000  Level FlightAware ADS-B
Sun 07:35:45 PM -17.7570 -47.0450 353° North 468 539 35,000  Level FlightAware ADS-B
Sun 07:36:29 PM -17.6630 -47.0580 352° North 468 539 35,000  Level FlightAware ADS-B
Sun 07:37:09 PM -17.5750 -47.0690 353° North 469 540 35,000  Level FlightAware ADS-B
Sun 07:37:53 PM -17.4790 -47.0820 353° North 469 540 35,000  Level FlightAware ADS-B
Sun 07:38:33 PM -17.3950 -47.0930 353° North 469 540 35,000  Level FlightAware ADS-B
Sun 07:39:23 PM -17.2930 -47.1080 352° North 470 541 35,000  Level FlightAware ADS-B
Sun 07:40:13 PM -17.1760 -47.1250 352° North 470 541 35,000  Level FlightAware ADS-B
Sun 07:40:46 PM -17.1070 -47.1350 352° North 470 541 35,000  Level FlightAware ADS-B
Sun 07:41:27 PM -17.0280 -47.1480 351° North 471 542 35,000  Level FlightAware ADS-B
Sun 07:42:03 PM -16.9620 -47.1590 351° North 471 542 35,000  Level FlightAware ADS-B
Sun 07:42:43 PM -16.8530 -47.1740 352° North 471 542 35,000  Level FlightAware ADS-B
Sun 07:43:24 PM -16.7780 -47.1870 351° North 471 542 35,000  Level FlightAware ADS-B
Sun 07:44:12 PM -16.6900 -47.2010 351° North 471 542 35,000  Level FlightAware ADS-B
Sun 07:44:49 PM -16.6220 -47.2120 351° North 471 542 35,000  Level FlightAware ADS-B
Sun 07:45:33 PM -16.4910 -47.2300 352° North 476 548 35,000  Level FlightAware ADS-B
Sun 07:46:12 PM -16.4050 -47.2410 353° North 476 548 35,000 71 Level FlightAware ADS-B
Sun 07:46:58 PM -16.3030 -47.2540 353° North 477 549 35,100 357 Climbing FlightAware ADS-B
Sun 07:47:36 PM -16.2130 -47.2720 349° North 477 549 35,500 474 Climbing FlightAware ADS-B
Sun 07:48:14 PM -16.1320 -47.2880 349° North 478 550 35,700 385 Climbing FlightAware ADS-B
Sun 07:48:54 PM -16.0440 -47.3050 349° North 481 554 36,000 225 Climbing FlightAware ADS-B
Sun 07:49:34 PM -15.9560 -47.3210 350° North 481 554 36,000  Level FlightAware ADS-B
Sun 07:50:09 PM -15.8790 -47.3360 349° North 481 554 36,000  Level FlightAware ADS-B
Sun 07:50:54 PM -15.7800 -47.3540 350° North 480 552 36,000  Level FlightAware ADS-B
Sun 07:51:34 PM -15.6940 -47.3700 350° North 480 552 36,000  Level FlightAware ADS-B
Sun 07:52:09 PM -15.6180 -47.3850 349° North 479 551 36,000  Level FlightAware ADS-B
Sun 07:52:54 PM -15.5190 -47.4030 350° North 480 552 36,000  Level FlightAware ADS-B
Sun 07:53:29 PM -15.4420 -47.4180 349° North 480 552 36,000  Level FlightAware ADS-B
Sun 07:54:14 PM -15.3440 -47.4360 350° North 479 551 36,000  Level FlightAware ADS-B
Sun 07:55:00 PM -15.2450 -47.4540 350° North 478 550 36,000  Level FlightAware ADS-B
Sun 07:55:39 PM -15.1650 -47.4690 350° North 477 549 36,000  Level FlightAware ADS-B
Sun 07:56:24 PM -15.0650 -47.4880 350° North 477 549 36,000  Level FlightAware ADS-B
Sun 07:57:06 PM -14.9770 -47.5040 350° North 477 549 36,000  Level FlightAware ADS-B
Sun 07:57:54 PM -14.8630 -47.5250 350° North 475 547 36,000  Level FlightAware ADS-B
Sun 07:58:34 PM -14.7790 -47.5410 350° North 474 545 36,000  Level FlightAware ADS-B
Sun 07:59:21 PM -14.6810 -47.5590 350° North 473 544 36,000  Level FlightAware ADS-B
Sun 07:59:59 PM -14.5940 -47.5750 350° North 472 543 36,000  Level FlightAware ADS-B
Sun 08:00:39 PM -14.5140 -47.5900 350° North 472 543 36,000  Level FlightAware ADS-B
Sun 08:01:24 PM -14.4120 -47.6090 350° North 473 544 36,000  Level FlightAware ADS-B
Sun 08:02:43 PM -14.2540 -47.6390 350° North 475 547 36,000  Level FlightAware ADS-B
Sun 08:03:19 PM -14.1880 -47.6520 349° North 475 547 36,000  Level FlightAware ADS-B
Sun 08:04:05 PM -14.1030 -47.6690 349° North 475 547 36,000  Level FlightAware ADS-B
Sun 08:04:41 PM -14.0370 -47.6820 349° North 475 547 36,000  Level FlightAware ADS-B
Sun 08:05:29 PM -13.9490 -47.7000 349° North 475 547 36,000  Level FlightAware ADS-B
Sun 08:06:05 PM -13.8830 -47.7130 349° North 475 547 36,000  Level FlightAware ADS-B
Sun 08:06:54 PM -13.7930 -47.7310 349° North 475 547 36,000  Level FlightAware ADS-B
Sun 08:07:30 PM -13.7270 -47.7440 349° North 475 547 36,000  Level FlightAware ADS-B
Sun 08:08:19 PM -13.6380 -47.7620 349° North 475 547 36,000  Level FlightAware ADS-B
Sun 08:08:56 PM -13.5700 -47.7760 349° North 475 547 36,000  Level FlightAware ADS-B
Sun 08:09:45 PM -13.4800 -47.7940 349° North 475 547 36,000  Level FlightAware ADS-B
Sun 08:10:22 PM -13.4120 -47.8070 349° North 475 547 36,000  Level FlightAware ADS-B
Sun 08:11:36 PM -13.2760 -47.8340 349° North 475 547 36,000  Level FlightAware ADS-B
Sun 08:12:12 PM -13.2100 -47.8480 348° North 475 547 36,000  Level FlightAware ADS-B
Sun 08:14:00 PM -13.0111 -47.8589 357° North  Level Estimated
Sun 08:15:00 PM -12.9005 -47.8650 357° North  Level Estimated
Sun 08:16:00 PM -12.7900 -47.8710 357° North  Level Estimated
Sun 08:17:00 PM -12.6795 -47.8771 357° North  Level Estimated
Sun 08:18:00 PM -12.5690 -47.8831 357° North  Level Estimated
Sun 08:18:03 PM -12.2330 -48.0080 357° North 478 550 36,000  Level FlightAware ADS-B
Sun 08:18:49 PM -12.1400 -48.0250 350° North 479 551 36,000  Level FlightAware ADS-B
Sun 08:19:26 PM -12.0530 -48.0410 350° North 479 551 36,000  Level FlightAware ADS-B
Sun 08:20:29 PM -11.9320 -48.0640 349° North 479 551 36,000  Level FlightAware ADS-B
Sun 08:21:01 PM -11.8370 -48.0800 351° North 479 551 36,000  Level FlightAware ADS-B
Sun 08:21:41 PM -11.7680 -48.0920 350° North 479 551 36,000  Level FlightAware ADS-B
Sun 08:22:25 PM -11.6530 -48.1130 350° North 479 551 36,000  Level FlightAware ADS-B
Sun 08:23:01 PM -11.5770 -48.1270 350° North 479 551 36,000  Level FlightAware ADS-B
Sun 08:23:58 PM -11.4530 -48.1490 350° North 479 551 36,000  Level FlightAware ADS-B
Sun 08:25:06 PM -11.3090 -48.1750 350° North 479 551 36,000  Level FlightAware ADS-B
Sun 08:25:43 PM -11.2280 -48.1900 350° North 479 551 36,000  Level FlightAware ADS-B
Sun 08:26:27 PM -11.1250 -48.2080 350° North 480 552 36,000  Level FlightAware ADS-B
Sun 08:27:47 PM -10.9480 -48.2400 350° North 480 552 36,000  Level FlightAware ADS-B
Sun 08:28:32 PM -10.8630 -48.2560 350° North 480 552 36,000  Level FlightAware ADS-B
Sun 08:29:09 PM -10.9090 -48.2470 169° South 479 551 36,000  Level FlightAware ADS-B
Sun 08:30:00 PM -10.6700 -48.2900 350° North 479 551 36,000  Level FlightAware ADS-B
Sun 08:30:37 PM -10.7160 -48.2820 170° South 478 550 36,000  Level FlightAware ADS-B
Sun 08:31:17 PM -10.6420 -48.2960 349° North 478 550 36,000  Level FlightAware ADS-B
Sun 08:32:05 PM -10.5540 -48.3140 349° North 478 550 36,000  Level FlightAware ADS-B
Sun 08:32:41 PM -10.4870 -48.3270 349° North 478 550 36,000  Level FlightAware ADS-B
Sun 08:33:29 PM -10.3990 -48.3440 349° North 478 550 36,000  Level FlightAware ADS-B
Sun 08:34:29 PM -10.2880 -48.3660 349° North 478 550 36,000  Level FlightAware ADS-B
Sun 08:35:05 PM -10.2220 -48.3790 349° North 478 550 36,000  Level FlightAware ADS-B
Sun 08:35:41 PM -10.1550 -48.3930 348° North 478 550 36,000  Level FlightAware ADS-B
Sun 08:36:29 PM -10.0670 -48.4100 349° North 478 550 36,000  Level FlightAware ADS-B
Sun 08:37:17 PM -9.9780 -48.4280 349° North 478 550 36,000  Level FlightAware ADS-B
Sun 08:37:53 PM -9.9120 -48.4410 349° North 478 550 36,000  Level FlightAware ADS-B
Sun 08:39:42 PM -9.3740 -48.3710 356° North 477 549 36,000  Level FlightAware ADS-B
Sun 08:40:17 PM -9.3030 -48.3720 359° North 477 549 36,000  Level FlightAware ADS-B
Sun 08:41:17 PM -9.1650 -48.3740 359° North 478 550 36,000  Level FlightAware ADS-B
Sun 08:42:13 PM -9.0400 -48.3760 359° North 478 550 36,000  Level FlightAware ADS-B
Sun 08:42:55 PM -8.9520 -48.3770 359° North 478 550 36,000  Level FlightAware ADS-B
Sun 08:43:47 PM -8.8430 -48.3790 359° North 477 549 36,000  Level FlightAware ADS-B
Sun 08:44:27 PM -8.7430 -48.3800 359° North 477 549 36,000  Level FlightAware ADS-B
Sun 08:45:09 PM -8.6530 -48.3810 359° North 478 550 36,000  Level FlightAware ADS-B
Sun 08:45:43 PM -8.5910 -48.3820 359° North 478 550 36,000  Level FlightAware ADS-B
Sun 08:46:31 PM -8.5000 -48.3840 359° North 478 550 36,000  Level FlightAware ADS-B
Sun 08:47:20 PM -8.4080 -48.3850 359° North 478 550 36,000  Level FlightAware ADS-B
Sun 08:47:56 PM -8.3410 -48.3870 358° North 478 550 36,000  Level FlightAware ADS-B
Sun 08:48:33 PM -8.2710 -48.3880 359° North 478 550 36,000  Level FlightAware ADS-B
Sun 08:49:10 PM -8.2020 -48.3890 359° North 478 550 36,000  Level FlightAware ADS-B
Sun 08:49:58 PM -8.1110 -48.3910 359° North 478 550 36,000  Level FlightAware ADS-B
Sun 08:50:35 PM -8.0420 -48.3920 359° North 478 550 36,000  Level FlightAware ADS-B
Sun 08:51:10 PM -7.9760 -48.3930 359° North 478 550 36,000  Level FlightAware ADS-B
Sun 08:51:58 PM -7.8860 -48.3950 359° North 478 550 36,000  Level FlightAware ADS-B
Sun 08:52:34 PM -7.8180 -48.3960 359° North 478 550 36,000  Level FlightAware ADS-B
Sun 08:53:22 PM -7.7280 -48.3970 359° North 478 550 36,000  Level FlightAware ADS-B
Sun 08:53:58 PM -7.6600 -48.3980 359° North 478 550 36,000  Level FlightAware ADS-B
Sun 08:54:46 PM -7.5700 -48.4000 359° North 478 550 36,000 -672 Level FlightAware ADS-B
Sun 08:57:00 PM -7.3229 -48.4031 359° North  Level Estimated
Sun 08:58:00 PM -7.2122 -48.4045 359° North  Level Estimated
Sun 08:59:00 PM -7.1015 -48.4058 359° North  Level Estimated
Sun 09:00:00 PM -6.9908 -48.4072 359° North  Level Estimated
Sun 09:01:00 PM -6.8802 -48.4086 359° North  Level Estimated
Sun 09:02:00 PM -6.7695 -48.4100 359° North  Level Estimated
Sun 09:03:00 PM -6.6588 -48.4113 359° North  Level Estimated
Sun 09:04:00 PM -6.5482 -48.4127 359° North  Level Estimated
Sun 09:05:00 PM -6.4375 -48.4141 359° North  Level Estimated
Sun 09:06:00 PM -6.3268 -48.4154 359° North  Level Estimated
Sun 09:07:00 PM -6.2161 -48.4168 359° North  Level Estimated
Sun 09:08:00 PM -6.1055 -48.4182 359° North  Level Estimated
Sun 09:09:00 PM -5.9948 -48.4195 359° North  Level Estimated
Sun 09:10:00 PM -5.8841 -48.4209 359° North  Level Estimated
Sun 09:11:00 PM -5.7735 -48.4223 359° North  Level Estimated
Sun 09:12:00 PM -5.6628 -48.4236 359° North  Level Estimated
Sun 09:13:00 PM -5.5521 -48.4250 359° North  Level Estimated
Sun 09:14:00 PM -5.4415 -48.4264 359° North  Level Estimated
Sun 09:15:00 PM -5.3308 -48.4278 359° North  Level Estimated
Sun 09:16:00 PM -5.2201 -48.4291 359° North  Level Estimated
Sun 09:17:00 PM -5.1094 -48.4305 359° North  Level Estimated
Sun 09:18:00 PM -4.9988 -48.4319 359° North  Level Estimated
Sun 09:19:00 PM -4.8881 -48.4332 359° North  Level Estimated
Sun 09:20:00 PM -4.7774 -48.4346 359° North  Level Estimated
Sun 09:21:00 PM -4.6668 -48.4359 359° North  Level Estimated
Sun 09:22:00 PM -4.5561 -48.4373 359° North  Level Estimated
Sun 09:23:00 PM -4.4454 -48.4386 359° North  Level Estimated
Sun 09:24:00 PM -4.3348 -48.4400 359° North  Level Estimated
Sun 09:25:00 PM -4.2241 -48.4414 359° North  Level Estimated
Sun 09:26:00 PM -4.1134 -48.4427 359° North  Level Estimated
Sun 09:27:00 PM -4.0027 -48.4441 359° North  Level Estimated
Sun 09:28:00 PM -3.8921 -48.4454 359° North  Level Estimated
Sun 09:29:00 PM -3.7814 -48.4468 359° North  Level Estimated
Sun 09:30:00 PM -3.6707 -48.4482 359° North  Level Estimated
Sun 09:31:00 PM -3.5601 -48.4495 359° North  Level Estimated
Sun 09:32:00 PM -3.4494 -48.4509 359° North  Level Estimated
Sun 09:33:00 PM -3.3387 -48.4523 359° North  Level Estimated
Sun 09:34:00 PM -3.2281 -48.4536 359° North  Level Estimated
Sun 09:35:00 PM -3.1174 -48.4550 359° North  Level Estimated
Sun 09:36:00 PM -3.0067 -48.4563 359° North  Level Estimated
Sun 09:37:00 PM -2.8960 -48.4577 359° North  Level Estimated
Sun 09:38:00 PM -2.7854 -48.4590 359° North  Level Estimated
Sun 09:39:00 PM -2.6747 -48.4604 359° North  Level Estimated
Sun 09:40:00 PM -2.5640 -48.4618 359° North  Level Estimated
Sun 09:41:00 PM -2.4534 -48.4631 359° North  Level Estimated
Sun 09:42:00 PM -2.3427 -48.4645 359° North  Level Estimated
Sun 09:43:00 PM -2.2320 -48.4659 359° North  Level Estimated
Sun 09:44:00 PM -2.1214 -48.4672 359° North  Level Estimated
Sun 09:44:44 PM -1.4850 -48.5830 359° North 198 228 1,900  Level FlightAware ADS-B
Sun 09:45:00 PM -2.0107 -48.4686 359° North  Level Estimated
Sun 09:45:14 PM -1.4700 -48.5670 47° Northeast 172 198 1,900  Level FlightAware ADS-B
Sun 09:45:36 PM -1.4560 -48.5540 43° Northeast 150 173 1,800 -536 Descending FlightAware ADS-B
Sun 09:46:10 PM -1.4410 -48.5390 45° Northeast 140 161 1,400 -783 Descending FlightAware ADS-B
Sun 09:46:22 PM -1.4350 -48.5320 49° Northeast 139 160 1,200 -667 Descending FlightAware ADS-B
Sun 09:46:46 PM -1.4250 -48.5230 42° Northeast 140 161 1,000 -625 Descending FlightAware ADS-B
Sun 09:47:10 PM -1.4130 -48.5100 47° Northeast 141 162 700 -792 Descending FlightAware ADS-B
Sun 09:47:39 PM -1.3990 -48.4960 45° Northeast 144 166 300 -828 Descending FlightAware ADS-B
Sun 09:48:19 PM -1.3810 -48.4780 45° Northeast 120 138 -450 Descending FlightAware ADS-B

Login

Don't have an account? Register now (free) for customized features, flight alerts, and more!